Time;durP1;ratioP1;P1;durP2;ratioP2;P2;SDS_P1;SDS_P2;PMS_P1;PMS_P2;Temp;Humidity;BMP_temperature;BMP_pressure;BME280_temperature;BME280_humidity;BME280_pressure;Samples;Min_cycle;Max_cycle;Signal;HPM_P1;HPM_P2
2021/08/24 00:01:12;;;;;;;5.53;3.20;;;15.20;99.90;;;;;;1881015;76;21074;-79
2021/08/24 00:03:38;;;;;;;3.17;2.87;;;15.20;99.90;;;;;;1882414;76;21079;-79
2021/08/24 00:06:04;;;;;;;3.10;2.80;;;15.20;99.90;;;;;;1870595;76;21080;-79
2021/08/24 00:08:31;;;;;;;3.58;3.15;;;15.30;99.90;;;;;;1879712;76;21076;-79
2021/08/24 00:10:57;;;;;;;3.35;2.60;;;15.20;99.90;;;;;;1818292;78;21096;-80
2021/08/24 00:13:23;;;;;;;5.12;3.20;;;15.20;99.90;;;;;;1868034;76;21088;-79
2021/08/24 00:15:49;;;;;;;3.75;3.02;;;15.20;99.90;;;;;;1871346;76;21151;-79
2021/08/24 00:18:15;;;;;;;4.75;3.05;;;15.20;99.90;;;;;;1877158;76;21169;-79
2021/08/24 00:20:41;;;;;;;12.98;2.80;;;15.20;99.90;;;;;;1875668;76;21170;-79
2021/08/24 00:23:07;;;;;;;4.37;3.52;;;15.20;99.90;;;;;;1882512;76;21072;-79
2021/08/24 00:25:34;;;;;;;4.35;2.52;;;15.20;99.90;;;;;;1858565;76;21183;-79
2021/08/24 00:28:00;;;;;;;4.33;2.90;;;15.20;99.90;;;;;;1818603;77;21152;-80
2021/08/24 00:30:26;;;;;;;6.40;2.87;;;15.20;99.90;;;;;;1872294;76;21487;-79
2021/08/24 00:32:52;;;;;;;7.20;2.65;;;15.10;99.90;;;;;;1870040;75;21459;-79
2021/08/24 00:35:18;;;;;;;2.55;2.35;;;15.10;99.90;;;;;;1834673;77;21497;-79
2021/08/24 00:37:46;;;;;;;2.85;2.58;;;15.10;99.90;;;;;;1882543;76;21586;-79
2021/08/24 00:40:12;;;;;;;2.35;2.15;;;15.00;99.90;;;;;;1877734;76;21153;-79
2021/08/24 00:42:38;;;;;;;3.00;2.15;;;15.10;99.90;;;;;;1882654;76;21134;-79
2021/08/24 00:45:04;;;;;;;3.37;2.30;;;15.00;99.90;;;;;;1881107;75;21088;-79
2021/08/24 00:47:31;;;;;;;2.50;2.30;;;15.00;99.90;;;;;;1882574;76;21072;-79
2021/08/24 00:49:59;;;;;;;6.90;2.58;;;14.90;99.90;;;;;;1882499;76;21162;-79
2021/08/24 00:52:25;;;;;;;2.70;2.50;;;14.90;99.90;;;;;;1877998;76;21154;-79
2021/08/24 00:54:52;;;;;;;4.60;2.70;;;14.90;99.90;;;;;;1838292;78;21082;-78
2021/08/24 00:57:19;;;;;;;3.60;2.40;;;14.90;99.90;;;;;;1882516;76;21153;-79
2021/08/24 00:59:45;;;;;;;3.77;2.60;;;14.90;99.90;;;;;;1880581;76;21076;-79
2021/08/24 01:02:11;;;;;;;3.67;2.40;;;14.90;99.90;;;;;;1838221;78;21045;-79
2021/08/24 01:04:37;;;;;;;4.70;2.20;;;14.90;99.90;;;;;;1870413;76;21119;-79
2021/08/24 01:07:03;;;;;;;4.72;2.52;;;14.90;99.90;;;;;;1875632;76;21138;-79
2021/08/24 01:09:29;;;;;;;5.42;2.35;;;14.90;99.90;;;;;;1882638;76;21056;-79
2021/08/24 01:11:55;;;;;;;6.00;2.67;;;14.90;99.90;;;;;;1877033;76;21085;-78
2021/08/24 01:14:22;;;;;;;4.35;2.70;;;14.80;99.90;;;;;;1882603;76;21161;-79
2021/08/24 01:16:50;;;;;;;2.85;2.55;;;14.70;99.90;;;;;;1871993;76;21087;-79
2021/08/24 01:19:16;;;;;;;2.83;2.58;;;14.80;99.90;;;;;;1838772;78;21095;-79
2021/08/24 01:21:42;;;;;;;2.30;2.10;;;14.90;99.90;;;;;;1882719;76;21044;-78
2021/08/24 01:24:08;;;;;;;2.90;2.30;;;14.80;99.90;;;;;;1871534;76;21154;-79
2021/08/24 01:26:34;;;;;;;3.15;2.45;;;14.80;99.90;;;;;;1831947;78;21049;-79
2021/08/24 01:29:00;;;;;;;3.12;2.50;;;14.80;99.90;;;;;;1877086;76;21154;-79
2021/08/24 01:31:26;;;;;;;5.00;2.50;;;14.90;99.90;;;;;;1871747;76;21202;-79
2021/08/24 01:33:52;;;;;;;6.58;2.37;;;14.80;99.90;;;;;;1840604;78;21025;-79
2021/08/24 01:36:18;;;;;;;2.42;2.00;;;14.90;99.90;;;;;;1882498;76;21087;-79
2021/08/24 01:38:45;;;;;;;2.58;2.33;;;14.80;99.90;;;;;;1873477;76;21104;-78
2021/08/24 01:41:11;;;;;;;3.72;2.08;;;14.80;99.90;;;;;;1818746;78;21157;-79
2021/08/24 01:43:37;;;;;;;9.85;2.62;;;14.80;99.90;;;;;;1880226;76;21139;-79
2021/08/24 01:46:03;;;;;;;6.87;2.30;;;14.80;99.90;;;;;;1880337;76;21071;-78
2021/08/24 01:48:32;;;;;;;3.05;2.15;;;14.80;99.90;;;;;;1877704;76;21154;-79
2021/08/24 01:50:57;;;;;;;3.77;2.30;;;14.80;99.90;;;;;;1868863;75;21532;-79
2021/08/24 01:53:23;;;;;;;5.45;2.20;;;14.70;99.90;;;;;;1877130;76;21471;-79
2021/08/24 01:55:49;;;;;;;5.85;2.33;;;14.70;99.90;;;;;;1877668;76;21557;-79
2021/08/24 01:58:16;;;;;;;3.85;2.52;;;14.60;99.90;;;;;;1882432;76;21565;-78
2021/08/24 02:00:42;;;;;;;6.35;2.22;;;14.60;99.90;;;;;;1881462;76;21129;-79
2021/08/24 02:03:14;;;;;;;3.30;2.12;;;14.60;99.90;;;;;;1837691;78;21005;-79
2021/08/24 02:05:41;;;;;;;5.05;2.42;;;14.60;99.90;;;;;;1874230;76;21441;-79
2021/08/24 02:08:07;;;;;;;3.65;2.12;;;14.60;99.90;;;;;;1882511;76;21492;-79
2021/08/24 02:10:33;;;;;;;2.47;2.00;;;14.60;99.90;;;;;;1870910;76;21154;-79
2021/08/24 02:12:59;;;;;;;3.25;2.45;;;14.50;99.90;;;;;;1882453;76;21083;-78
2021/08/24 02:15:25;;;;;;;2.25;2.05;;;14.50;99.90;;;;;;1882414;76;21075;-79
2021/08/24 02:17:51;;;;;;;4.95;2.67;;;14.50;99.90;;;;;;1882574;76;21137;-79
2021/08/24 02:20:17;;;;;;;5.92;2.50;;;14.40;99.90;;;;;;1876599;76;21132;-79
2021/08/24 02:22:43;;;;;;;4.17;2.30;;;14.40;99.90;;;;;;1881732;76;21052;-79
2021/08/24 02:25:10;;;;;;;2.72;2.42;;;14.30;99.90;;;;;;1875312;76;21088;-78
2021/08/24 02:27:36;;;;;;;3.42;2.30;;;14.30;99.90;;;;;;1838148;78;21115;-79
2021/08/24 02:30:02;;;;;;;3.15;2.40;;;14.30;99.90;;;;;;1877168;76;21076;-78
2021/08/24 02:32:28;;;;;;;4.97;2.45;;;14.20;99.90;;;;;;1882567;76;21083;-79
2021/08/24 02:34:54;;;;;;;2.33;2.15;;;14.20;99.90;;;;;;1882618;76;21153;-79
2021/08/24 02:37:20;;;;;;;3.62;2.30;;;14.30;99.90;;;;;;1876235;76;21088;-79
2021/08/24 02:39:46;;;;;;;13.15;3.00;;;14.30;99.90;;;;;;1882332;76;21115;-79
2021/08/24 02:42:12;;;;;;;4.25;2.50;;;14.20;99.90;;;;;;1882597;76;21068;-79
2021/08/24 02:44:39;;;;;;;3.27;2.27;;;14.30;99.90;;;;;;1874067;76;21087;-79
2021/08/24 02:47:05;;;;;;;3.05;2.12;;;14.10;99.90;;;;;;1875420;76;21503;-79
2021/08/24 02:49:31;;;;;;;4.78;2.17;;;14.10;99.90;;;;;;1835107;78;21489;-79
2021/08/24 02:51:57;;;;;;;4.55;2.33;;;14.10;99.90;;;;;;1881305;75;21611;-78
2021/08/24 02:54:24;;;;;;;2.67;2.10;;;14.10;99.90;;;;;;1825680;78;21029;-78
2021/08/24 02:56:50;;;;;;;3.20;2.62;;;14.00;99.90;;;;;;1883464;76;21052;-78
2021/08/24 02:59:17;;;;;;;2.70;2.25;;;14.00;99.90;;;;;;1882643;76;21118;-78
2021/08/24 03:01:43;;;;;;;6.28;2.25;;;13.80;99.90;;;;;;1870950;76;21150;-79
2021/08/24 03:04:09;;;;;;;8.55;2.52;;;13.70;99.90;;;;;;1882498;76;21158;-79
2021/08/24 03:06:36;;;;;;;2.90;2.50;;;13.60;99.90;;;;;;1877730;76;21126;-78
2021/08/24 03:09:02;;;;;;;4.33;2.47;;;13.60;99.90;;;;;;1882594;76;21153;-78
2021/08/24 03:11:28;;;;;;;4.53;2.30;;;13.60;99.90;;;;;;1881117;76;21080;-77
2021/08/24 03:13:54;;;;;;;2.83;2.15;;;13.50;99.90;;;;;;1827970;77;21123;-77
2021/08/24 03:16:20;;;;;;;4.17;2.95;;;13.40;99.90;;;;;;1879666;76;21052;-78
2021/08/24 03:18:46;;;;;;;3.05;2.58;;;13.30;99.90;;;;;;1828937;77;21082;-78
2021/08/24 03:21:12;;;;;;;4.55;2.65;;;13.30;99.90;;;;;;1841164;76;21139;-78
2021/08/24 03:23:38;;;;;;;2.77;2.35;;;13.30;99.90;;;;;;1876021;76;21240;-78
2021/08/24 03:26:05;;;;;;;8.43;2.83;;;13.20;99.90;;;;;;1839018;78;21057;-78
2021/08/24 03:28:31;;;;;;;5.72;2.85;;;13.20;99.90;;;;;;1877160;76;21153;-77
2021/08/24 03:30:57;;;;;;;3.72;2.37;;;13.10;99.90;;;;;;1870875;76;21293;-78
2021/08/24 03:33:24;;;;;;;4.95;2.70;;;13.10;99.90;;;;;;1878321;76;21072;-77
2021/08/24 03:35:50;;;;;;;11.15;2.65;;;13.00;99.90;;;;;;1882551;76;21081;-78
2021/08/24 03:38:16;;;;;;;6.40;2.95;;;13.00;99.90;;;;;;1869753;76;21080;-77
2021/08/24 03:40:42;;;;;;;3.60;2.62;;;13.00;99.90;;;;;;1870958;76;21098;-78
2021/08/24 03:43:08;;;;;;;2.83;2.52;;;12.90;99.90;;;;;;1868055;76;21162;-78
2021/08/24 03:45:34;;;;;;;3.42;2.58;;;12.80;99.90;;;;;;1837767;78;21060;-79
2021/08/24 03:48:00;;;;;;;4.42;2.77;;;12.80;99.90;;;;;;1877176;76;21063;-78
2021/08/24 03:50:26;;;;;;;2.98;2.65;;;12.80;99.90;;;;;;1866339;76;21085;-78
2021/08/24 03:52:53;;;;;;;4.10;2.87;;;12.80;99.90;;;;;;1877288;76;21048;-79
2021/08/24 03:55:19;;;;;;;3.58;2.90;;;12.80;99.90;;;;;;1873655;76;21053;-78
2021/08/24 03:57:45;;;;;;;4.70;3.05;;;12.70;99.90;;;;;;1827859;77;21131;-78
2021/08/24 04:00:14;;;;;;;2.37;2.17;;;12.70;99.90;;;;;;1877841;76;21076;-79
2021/08/24 04:02:40;;;;;;;7.42;2.90;;;12.70;99.90;;;;;;1876126;76;21087;-78
2021/08/24 04:05:06;;;;;;;5.60;2.87;;;12.70;99.90;;;;;;1870359;76;21052;-79
2021/08/24 04:07:32;;;;;;;5.47;3.08;;;12.60;99.90;;;;;;1874854;76;21165;-79
2021/08/24 04:09:58;;;;;;;6.45;3.10;;;12.60;99.90;;;;;;1872050;76;21088;-79
2021/08/24 04:12:24;;;;;;;3.98;3.00;;;12.40;99.90;;;;;;1877105;76;21107;-79
2021/08/24 04:14:50;;;;;;;3.27;2.98;;;12.40;99.90;;;;;;1882540;76;21137;-78
2021/08/24 04:17:17;;;;;;;6.95;3.22;;;12.40;99.90;;;;;;1882578;76;21609;-79
2021/08/24 04:19:43;;;;;;;3.27;2.27;;;12.40;99.90;;;;;;1870654;76;21534;-79
2021/08/24 04:22:09;;;;;;;7.58;3.17;;;12.30;99.90;;;;;;1827080;77;21422;-79
2021/08/24 04:24:35;;;;;;;6.47;3.20;;;12.30;99.90;;;;;;1869530;76;21515;-79
2021/08/24 04:27:01;;;;;;;3.15;2.85;;;12.30;99.90;;;;;;1873743;76;21570;-79
2021/08/24 04:29:27;;;;;;;3.15;2.83;;;12.30;99.90;;;;;;1882440;76;21531;-79
2021/08/24 04:31:53;;;;;;;3.80;3.30;;;12.20;99.90;;;;;;1871727;76;21069;-79
2021/08/24 04:34:19;;;;;;;7.22;3.00;;;12.20;99.90;;;;;;1864850;76;21083;-79
2021/08/24 04:36:46;;;;;;;4.55;3.17;;;12.20;99.90;;;;;;1876126;75;21087;-79
2021/08/24 04:39:12;;;;;;;6.65;3.58;;;12.20;99.90;;;;;;1877713;76;21069;-79
2021/08/24 04:41:38;;;;;;;5.20;3.25;;;12.20;99.90;;;;;;1879297;76;21099;-79
2021/08/24 04:44:04;;;;;;;6.85;3.90;;;12.20;99.90;;;;;;1837119;78;21144;-79
2021/08/24 04:46:30;;;;;;;5.87;3.45;;;12.20;99.90;;;;;;1878103;76;21141;-79
2021/08/24 04:48:56;;;;;;;8.93;3.25;;;12.20;99.90;;;;;;1867495;76;21079;-79
2021/08/24 04:51:22;;;;;;;5.12;3.58;;;12.20;99.90;;;;;;1871614;76;21064;-79
2021/08/24 04:53:50;;;;;;;7.50;3.30;;;12.20;99.90;;;;;;1872633;76;21491;-79
2021/08/24 04:56:16;;;;;;;3.10;2.80;;;12.10;99.90;;;;;;1874088;76;21512;-79
2021/08/24 04:58:42;;;;;;;6.58;3.30;;;12.10;99.90;;;;;;1882678;76;21464;-79
2021/08/24 05:01:08;;;;;;;6.12;3.25;;;12.20;99.90;;;;;;1882488;76;21480;-79
2021/08/24 05:03:34;;;;;;;3.42;3.12;;;12.20;99.90;;;;;;1874098;75;21075;-79
2021/08/24 05:06:00;;;;;;;3.22;3.02;;;12.30;99.90;;;;;;1869116;76;21268;-79
2021/08/24 05:08:27;;;;;;;3.60;3.30;;;12.30;99.90;;;;;;1838225;78;21135;-79
2021/08/24 05:10:53;;;;;;;5.17;2.70;;;12.40;99.90;;;;;;1882532;76;21153;-79
2021/08/24 05:13:19;;;;;;;5.33;3.12;;;12.50;99.90;;;;;;1882626;76;21052;-79
2021/08/24 05:15:45;;;;;;;5.05;3.20;;;12.50;99.90;;;;;;1869301;76;21474;-79
2021/08/24 05:18:11;;;;;;;7.60;3.02;;;12.50;99.90;;;;;;1880732;76;21499;-79
2021/08/24 05:20:38;;;;;;;6.80;3.58;;;12.50;99.90;;;;;;1882543;76;21546;-79
2021/08/24 05:23:04;;;;;;;7.28;3.50;;;12.50;99.90;;;;;;1882689;76;21158;-79
2021/08/24 05:25:30;;;;;;;5.45;3.60;;;12.60;99.90;;;;;;1874840;76;21064;-79
2021/08/24 05:27:56;;;;;;;5.03;3.25;;;12.70;99.90;;;;;;1876588;76;21154;-79
2021/08/24 05:30:23;;;;;;;4.53;3.52;;;12.80;99.90;;;;;;1834559;78;21037;-79
2021/08/24 05:32:49;;;;;;;6.62;3.22;;;12.90;99.90;;;;;;1875096;76;21099;-80
2021/08/24 05:35:15;;;;;;;3.52;3.22;;;13.00;99.90;;;;;;1822872;78;21098;-78
2021/08/24 05:37:41;;;;;;;3.85;3.30;;;13.10;99.90;;;;;;1874575;76;21084;-79
2021/08/24 05:40:07;;;;;;;3.40;3.10;;;13.20;99.90;;;;;;1873067;76;21135;-80
2021/08/24 05:42:34;;;;;;;3.12;2.83;;;13.30;99.90;;;;;;1826505;78;21061;-79
2021/08/24 05:45:00;;;;;;;4.90;3.30;;;13.40;99.90;;;;;;1866544;76;21492;-79
2021/08/24 05:47:26;;;;;;;4.00;3.25;;;13.50;99.90;;;;;;1869444;76;21495;-79
2021/08/24 05:49:52;;;;;;;7.92;3.80;;;13.50;99.90;;;;;;1828882;77;21489;-79
2021/08/24 05:52:18;;;;;;;3.55;3.00;;;13.80;99.90;;;;;;1882586;76;21518;-79
2021/08/24 05:54:45;;;;;;;6.62;3.33;;;13.90;99.90;;;;;;1874608;76;21471;-79
2021/08/24 05:57:11;;;;;;;3.75;3.37;;;14.00;99.90;;;;;;1872990;76;21076;-80
2021/08/24 05:59:38;;;;;;;4.70;3.47;;;14.40;99.90;;;;;;1828929;77;21186;-79
2021/08/24 06:02:04;;;;;;;3.15;2.75;;;14.50;99.90;;;;;;1871139;76;21079;-79
2021/08/24 06:04:30;;;;;;;5.28;3.67;;;14.60;99.90;;;;;;1861510;76;21162;-79
2021/08/24 06:06:56;;;;;;;4.47;3.05;;;14.80;99.90;;;;;;1813213;77;21067;-80
2021/08/24 06:09:22;;;;;;;5.20;3.25;;;14.90;99.90;;;;;;1872418;76;21149;-79
2021/08/24 06:11:50;;;;;;;3.30;3.00;;;15.00;99.90;;;;;;1818425;77;21106;-80
2021/08/24 06:14:16;;;;;;;10.15;3.02;;;15.00;99.90;;;;;;1875642;76;21079;-78
2021/08/24 06:16:42;;;;;;;3.17;2.70;;;15.10;99.90;;;;;;1871434;76;21057;-79
2021/08/24 06:19:09;;;;;;;6.17;3.10;;;15.20;99.90;;;;;;1881738;76;21127;-79
2021/08/24 06:21:35;;;;;;;3.12;2.83;;;15.10;99.90;;;;;;1871449;76;21079;-80
2021/08/24 06:24:02;;;;;;;2.62;2.47;;;15.30;99.90;;;;;;1874149;76;21157;-79
2021/08/24 06:26:28;;;;;;;5.28;2.98;;;15.30;99.90;;;;;;1826230;77;21030;-79
2021/08/24 06:28:54;;;;;;;2.77;2.55;;;15.30;99.90;;;;;;1882539;76;21075;-79
2021/08/24 06:31:20;;;;;;;3.60;2.67;;;15.00;99.90;;;;;;1882811;76;21137;-79
2021/08/24 06:33:46;;;;;;;2.98;2.55;;;14.90;99.90;;;;;;1877151;76;21157;-79
2021/08/24 06:36:14;;;;;;;6.37;3.30;;;14.90;99.90;;;;;;1879175;76;21052;-79
2021/08/24 06:38:40;;;;;;;4.60;2.65;;;15.20;99.90;;;;;;1833656;77;21490;-79
2021/08/24 06:41:06;;;;;;;3.10;2.72;;;15.30;99.90;;;;;;1880135;76;21503;-80
2021/08/24 06:43:32;;;;;;;6.10;2.75;;;15.40;99.90;;;;;;1868693;76;21504;-79
2021/08/24 06:45:58;;;;;;;2.92;2.70;;;15.50;99.90;;;;;;1872267;76;21509;-80
2021/08/24 06:48:24;;;;;;;4.10;2.95;;;15.40;99.90;;;;;;1868196;76;21515;-80
2021/08/24 06:50:51;;;;;;;5.95;3.25;;;15.60;99.90;;;;;;1826534;78;21052;-80
2021/08/24 06:53:17;;;;;;;7.22;3.50;;;15.40;99.90;;;;;;1875027;76;21119;-79
2021/08/24 06:55:43;;;;;;;4.00;2.60;;;15.70;99.90;;;;;;1875744;76;21069;-79
2021/08/24 06:58:10;;;;;;;3.65;2.65;;;15.90;99.90;;;;;;1874167;76;21075;-79
2021/08/24 07:00:36;;;;;;;7.20;2.60;;;15.80;99.90;;;;;;1882807;76;21137;-79
2021/08/24 07:03:02;;;;;;;2.80;2.60;;;15.90;99.90;;;;;;1882587;76;21068;-79
2021/08/24 07:05:28;;;;;;;4.95;3.00;;;15.70;99.90;;;;;;1877282;75;21205;-79
2021/08/24 07:07:54;;;;;;;4.25;3.00;;;15.60;99.90;;;;;;1882553;76;21075;-79
2021/08/24 07:10:20;;;;;;;3.10;2.72;;;15.50;99.90;;;;;;1870254;76;21088;-79
2021/08/24 07:12:46;;;;;;;5.12;2.98;;;15.40;99.90;;;;;;1875390;76;21158;-79
2021/08/24 07:15:12;;;;;;;3.60;2.60;;;15.40;99.90;;;;;;1870653;76;21085;-79
2021/08/24 07:17:39;;;;;;;3.27;2.50;;;15.50;99.90;;;;;;1882717;76;21491;-79
2021/08/24 07:20:05;;;;;;;3.15;2.62;;;15.30;99.90;;;;;;1882907;76;21484;-79
2021/08/24 07:22:31;;;;;;;3.33;2.58;;;15.30;99.90;;;;;;1874158;76;21134;-79
2021/08/24 07:24:57;;;;;;;2.85;2.50;;;15.50;99.90;;;;;;1885338;76;21092;-79
2021/08/24 07:27:23;;;;;;;4.10;3.02;;;15.50;99.90;;;;;;1874426;76;21508;-79
2021/08/24 07:29:51;;;;;;;4.30;2.40;;;15.40;99.90;;;;;;1876075;76;21068;-81
2021/08/24 07:32:17;;;;;;;6.87;2.60;;;15.40;99.90;;;;;;1830956;77;21081;-78
2021/08/24 07:34:43;;;;;;;4.12;3.05;;;15.20;99.90;;;;;;1872262;76;21159;-80
2021/08/24 07:37:09;;;;;;;2.62;2.42;;;15.30;99.90;;;;;;1881761;75;21043;-80
2021/08/24 07:39:35;;;;;;;2.87;2.67;;;15.50;99.90;;;;;;1834919;78;21053;-79
2021/08/24 07:42:01;;;;;;;9.05;2.87;;;15.40;99.90;;;;;;1867360;76;21079;-80
2021/08/24 07:44:31;;;;;;;10.70;2.75;;;15.60;99.90;;;;;;1874816;76;21586;-80
2021/08/24 07:46:55;;;;;;;3.10;2.58;;;15.80;99.90;;;;;;1871768;76;21056;-80
2021/08/24 07:49:21;;;;;;;4.87;2.50;;;16.00;99.90;;;;;;1869364;76;21079;-80
2021/08/24 07:51:48;;;;;;;5.78;2.72;;;15.90;99.90;;;;;;1875706;76;21372;-80
2021/08/24 07:54:14;;;;;;;4.53;2.90;;;16.10;99.90;;;;;;1870208;76;21081;-80
2021/08/24 07:56:40;;;;;;;4.70;2.40;;;16.30;99.90;;;;;;1873485;76;21149;-80
2021/08/24 07:59:06;;;;;;;3.08;2.27;;;16.40;99.90;;;;;;1861472;76;21080;-81
2021/08/24 08:01:32;;;;;;;2.10;1.90;;;16.40;99.90;;;;;;1833734;77;21098;-80
2021/08/24 08:03:58;;;;;;;4.30;2.42;;;16.60;99.90;;;;;;1875246;75;21104;-78
2021/08/24 08:06:24;;;;;;;3.33;2.30;;;16.50;99.90;;;;;;1876964;76;21089;-80
2021/08/24 08:08:50;;;;;;;5.03;2.33;;;16.70;99.90;;;;;;1878934;76;21088;-78
2021/08/24 08:11:17;;;;;;;2.27;2.00;;;16.70;99.90;;;;;;1834916;77;21606;-78
2021/08/24 08:13:43;;;;;;;2.35;2.15;;;16.80;99.90;;;;;;1871385;76;21445;-80
2021/08/24 08:16:09;;;;;;;3.00;2.20;;;16.70;99.90;;;;;;1837488;78;21481;-80
2021/08/24 08:18:35;;;;;;;2.85;2.08;;;16.60;99.90;;;;;;1883144;76;21515;-79
2021/08/24 08:21:01;;;;;;;4.55;2.37;;;16.60;99.90;;;;;;1868545;76;21496;-78
2021/08/24 08:23:27;;;;;;;10.68;2.52;;;16.70;99.90;;;;;;1875918;76;21456;-79
2021/08/24 08:25:53;;;;;;;9.25;2.58;;;16.40;99.90;;;;;;1883200;76;21150;-78
2021/08/24 08:28:19;;;;;;;2.47;2.25;;;16.50;99.90;;;;;;1882950;76;21079;-79
2021/08/24 08:30:47;;;;;;;2.22;2.00;;;16.80;99.90;;;;;;1876352;76;21080;-79
2021/08/24 08:33:13;;;;;;;3.75;2.37;;;17.00;99.90;;;;;;1861586;76;21092;-79
2021/08/24 08:35:39;;;;;;;4.08;2.02;;;16.80;99.90;;;;;;1832987;78;21115;-79
2021/08/24 08:38:05;;;;;;;2.77;2.45;;;16.90;99.90;;;;;;1882123;76;21087;-78
2021/08/24 08:40:32;;;;;;;3.30;2.37;;;17.00;99.90;;;;;;1882988;76;21060;-80
2021/08/24 08:42:58;;;;;;;2.02;1.75;;;17.20;99.90;;;;;;1879307;76;21194;-79
2021/08/24 08:45:24;;;;;;;3.92;2.05;;;17.40;99.90;;;;;;1838855;78;21017;-79
2021/08/24 08:47:50;;;;;;;3.37;2.08;;;17.20;99.90;;;;;;1872449;76;21072;-80
2021/08/24 08:50:17;;;;;;;3.77;2.10;;;17.10;99.90;;;;;;1870508;76;21077;-79
2021/08/24 08:52:43;;;;;;;15.72;2.92;;;17.20;99.90;;;;;;1833132;77;21049;-79
2021/08/24 08:55:09;;;;;;;4.35;2.20;;;16.90;99.90;;;;;;1870777;76;21068;-78
2021/08/24 08:57:35;;;;;;;2.22;2.02;;;16.70;99.90;;;;;;1861208;76;21080;-80
2021/08/24 09:00:02;;;;;;;3.40;2.20;;;17.00;99.90;;;;;;1877728;76;21083;-80
2021/08/24 09:02:29;;;;;;;2.40;2.10;;;17.00;99.90;;;;;;1875634;76;21119;-78
2021/08/24 09:04:56;;;;;;;5.53;2.60;;;16.60;99.90;;;;;;1827608;77;21483;-78
2021/08/24 09:07:22;;;;;;;3.10;2.35;;;16.40;99.90;;;;;;1872242;75;21573;-77
2021/08/24 09:09:51;;;;;;;2.33;2.02;;;16.30;99.90;;;;;;1882976;76;21565;-78
2021/08/24 09:12:17;;;;;;;7.17;2.92;;;16.10;99.90;;;;;;1873012;76;21083;-78
2021/08/24 09:14:43;;;;;;;2.65;2.25;;;16.20;99.90;;;;;;1872027;76;21080;-79
2021/08/24 09:17:09;;;;;;;2.92;2.17;;;16.30;99.90;;;;;;1867789;76;21054;-77
2021/08/24 09:19:35;;;;;;;1.90;1.80;;;16.20;99.90;;;;;;1873721;76;21158;-78
2021/08/24 09:22:04;;;;;;;8.00;2.17;;;16.50;99.90;;;;;;1869378;76;21147;-76
2021/08/24 09:24:29;;;;;;;2.42;2.00;;;16.60;99.90;;;;;;1875238;76;21109;-78
2021/08/24 09:26:55;;;;;;;2.00;1.90;;;16.50;99.90;;;;;;1865038;76;21080;-79
2021/08/24 09:29:22;;;;;;;2.87;2.10;;;16.70;99.90;;;;;;1836728;78;21030;-77
2021/08/24 09:31:48;;;;;;;2.83;2.00;;;16.60;99.90;;;;;;1870851;76;21092;-78
2021/08/24 09:34:14;;;;;;;1.82;1.72;;;16.80;99.90;;;;;;1883702;75;21068;-79
2021/08/24 09:36:40;;;;;;;2.30;2.10;;;16.70;99.90;;;;;;1869723;76;21081;-78
2021/08/24 09:39:06;;;;;;;3.52;1.67;;;16.60;99.90;;;;;;1832599;77;21503;-79
2021/08/24 09:41:32;;;;;;;3.40;2.40;;;16.90;99.90;;;;;;1881801;76;21451;-78
2021/08/24 09:43:58;;;;;;;2.25;2.05;;;17.10;99.90;;;;;;1869619;76;21523;-78
2021/08/24 09:46:26;;;;;;;2.80;2.10;;;16.80;99.90;;;;;;1881845;76;21040;-78
2021/08/24 09:48:52;;;;;;;4.15;2.05;;;17.00;99.90;;;;;;1869683;76;21104;-79
2021/08/24 09:51:18;;;;;;;7.95;2.70;;;17.20;99.90;;;;;;1866097;76;21087;-78
2021/08/24 09:53:45;;;;;;;5.25;2.45;;;17.20;99.90;;;;;;1837750;78;21096;-80
2021/08/24 09:56:11;;;;;;;3.67;2.17;;;17.30;99.90;;;;;;1865675;76;21088;-79
2021/08/24 09:58:37;;;;;;;2.37;2.17;;;17.30;99.90;;;;;;1852855;76;21079;-79
2021/08/24 10:01:03;;;;;;;2.60;2.22;;;17.10;99.90;;;;;;1906743;75;21141;-77
2021/08/24 10:03:29;;;;;;;2.55;2.35;;;17.30;99.90;;;;;;1909742;74;21049;-77
2021/08/24 10:05:55;;;;;;;11.38;2.40;;;17.50;99.90;;;;;;1908753;75;21078;-78
2021/08/24 10:08:22;;;;;;;3.00;2.40;;;17.30;99.90;;;;;;1912377;75;21077;-78
2021/08/24 10:10:48;;;;;;;2.35;2.15;;;17.30;99.90;;;;;;1899864;74;21155;-78
2021/08/24 10:13:14;;;;;;;2.50;2.30;;;17.40;99.90;;;;;;1912955;74;21047;-78
2021/08/24 10:15:40;;;;;;;3.25;2.60;;;17.30;99.90;;;;;;1909633;75;21110;-78
2021/08/24 10:18:06;;;;;;;7.50;2.47;;;17.50;99.90;;;;;;1903994;74;21090;-79
2021/08/24 10:20:32;;;;;;;2.65;2.45;;;17.70;99.90;;;;;;1915509;75;21107;-78
2021/08/24 10:22:58;;;;;;;6.12;2.65;;;17.60;99.90;;;;;;1910253;74;21105;-78
2021/08/24 10:25:25;;;;;;;3.12;2.50;;;17.60;99.90;;;;;;1910902;75;21070;-79
2021/08/24 10:27:51;;;;;;;3.20;2.50;;;17.70;99.90;;;;;;1897571;75;21151;-78
2021/08/24 10:30:17;;;;;;;2.52;2.02;;;17.50;99.90;;;;;;1899775;74;21079;-78
2021/08/24 10:32:43;;;;;;;2.60;2.15;;;17.90;99.90;;;;;;1914048;75;21160;-79
2021/08/24 10:35:09;;;;;;;7.87;2.05;;;18.00;99.90;;;;;;1911420;75;21095;-78
2021/08/24 10:37:35;;;;;;;2.80;2.10;;;17.90;99.90;;;;;;1916494;75;21071;-78
2021/08/24 10:40:01;;;;;;;6.22;2.33;;;17.70;99.90;;;;;;1915374;74;21182;-76
2021/08/24 10:42:27;;;;;;;2.72;2.22;;;17.80;99.90;;;;;;1893100;74;21149;-78
2021/08/24 10:44:54;;;;;;;2.98;2.37;;;17.80;99.90;;;;;;1910844;74;21152;-77
2021/08/24 10:47:20;;;;;;;2.55;2.35;;;17.60;99.90;;;;;;1896967;74;21073;-77
2021/08/24 10:49:46;;;;;;;2.27;2.08;;;17.60;99.90;;;;;;1904075;75;21077;-77
2021/08/24 10:52:12;;;;;;;3.00;2.33;;;17.30;99.90;;;;;;1904258;74;21083;-77
2021/08/24 10:54:38;;;;;;;2.47;2.10;;;17.80;99.90;;;;;;1907180;75;21150;-78
2021/08/24 10:57:04;;;;;;;3.83;2.45;;;18.10;99.90;;;;;;1900092;75;21151;-78
2021/08/24 10:59:30;;;;;;;2.35;1.92;;;18.10;99.90;;;;;;1913660;75;21140;-78
2021/08/24 11:01:58;;;;;;;1.77;1.67;;;18.00;99.90;;;;;;1915437;75;21106;-77
2021/08/24 11:04:24;;;;;;;2.90;2.20;;;17.80;99.90;;;;;;1907476;74;21054;-78
2021/08/24 11:06:51;;;;;;;2.30;2.10;;;17.80;99.90;;;;;;1929008;73;21090;-78
2021/08/24 11:09:17;;;;;;;2.27;2.08;;;17.90;99.90;;;;;;1910624;74;21093;-78
2021/08/24 11:11:43;;;;;;;1.92;1.80;;;18.20;99.90;;;;;;1907711;74;21094;-78
2021/08/24 11:14:09;;;;;;;2.25;2.05;;;18.30;99.90;;;;;;1915485;74;21173;-78
2021/08/24 11:16:35;;;;;;;2.10;1.92;;;18.60;99.90;;;;;;1915488;74;21093;-78
2021/08/24 11:19:01;;;;;;;2.12;1.92;;;18.60;99.90;;;;;;1905443;74;21517;-78
2021/08/24 11:21:27;;;;;;;2.02;1.82;;;18.70;99.90;;;;;;1900589;75;21508;-78
2021/08/24 11:23:53;;;;;;;2.10;1.90;;;18.70;99.90;;;;;;1915524;75;21481;-78
2021/08/24 11:26:20;;;;;;;3.42;1.82;;;18.60;99.90;;;;;;1908402;75;21590;-78
2021/08/24 11:28:46;;;;;;;2.20;1.72;;;19.00;99.90;;;;;;1904607;74;21519;-77
2021/08/24 11:31:12;;;;;;;2.17;1.50;;;19.20;99.90;;;;;;1906508;74;21470;-78
2021/08/24 11:33:38;;;;;;;1.72;1.62;;;18.60;99.90;;;;;;1906394;75;21098;-77
2021/08/24 11:36:04;;;;;;;1.60;1.45;;;18.90;99.90;;;;;;1907749;74;21044;-77
2021/08/24 11:38:31;;;;;;;1.35;1.27;;;19.00;99.90;;;;;;1910116;75;21039;-78
2021/08/24 11:40:57;;;;;;;1.70;1.60;;;19.30;99.90;;;;;;1915604;75;21047;-77
2021/08/24 11:43:23;;;;;;;1.57;1.47;;;19.40;99.90;;;;;;1915373;75;21095;-77
2021/08/24 11:45:49;;;;;;;1.85;1.75;;;19.60;99.90;;;;;;1908862;74;21125;-78
2021/08/24 11:48:15;;;;;;;3.30;1.95;;;20.00;99.90;;;;;;1903714;75;21070;-77
2021/08/24 11:50:41;;;;;;;3.15;1.98;;;19.70;99.90;;;;;;1903243;75;21163;-77
2021/08/24 11:53:07;;;;;;;5.45;1.87;;;19.60;99.90;;;;;;1901805;74;21081;-78
2021/08/24 11:55:34;;;;;;;3.77;2.12;;;19.80;99.90;;;;;;1904624;75;21059;-78
2021/08/24 11:58:00;;;;;;;1.62;1.52;;;20.00;99.90;;;;;;1906649;74;21210;-78
2021/08/24 12:00:26;;;;;;;1.72;1.62;;;20.30;99.90;;;;;;1908795;74;21071;-77
2021/08/24 12:02:52;;;;;;;3.33;1.67;;;20.10;99.90;;;;;;1906517;74;21096;-78
2021/08/24 12:05:18;;;;;;;1.50;1.40;;;20.40;99.90;;;;;;1904507;74;21248;-77
2021/08/24 12:07:44;;;;;;;2.02;1.80;;;20.40;99.90;;;;;;1905482;75;21484;-77
2021/08/24 12:10:10;;;;;;;2.20;1.60;;;20.00;99.90;;;;;;1910300;75;21506;-77
2021/08/24 12:12:37;;;;;;;3.17;1.67;;;20.00;99.90;;;;;;1903894;74;21506;-78
2021/08/24 12:15:03;;;;;;;3.75;1.72;;;20.00;99.90;;;;;;1914051;75;21542;-78
2021/08/24 12:17:29;;;;;;;2.17;1.90;;;19.80;99.90;;;;;;1902852;74;21575;-78
2021/08/24 12:19:55;;;;;;;4.97;1.98;;;19.70;99.90;;;;;;1907354;75;21572;-78
2021/08/24 12:22:21;;;;;;;1.70;1.60;;;19.80;99.90;;;;;;1897674;74;21524;-78
2021/08/24 12:24:47;;;;;;;1.85;1.50;;;19.80;99.90;;;;;;1905476;74;21148;-78
2021/08/24 12:27:13;;;;;;;4.30;2.25;;;19.90;99.90;;;;;;1905890;75;21082;-77
2021/08/24 12:29:41;;;;;;;2.05;1.50;;;19.20;99.90;;;;;;1908618;74;21105;-78
2021/08/24 12:32:07;;;;;;;4.00;1.90;;;19.10;99.90;;;;;;1907107;75;21572;-78
2021/08/24 12:34:34;;;;;;;1.98;1.77;;;19.10;99.90;;;;;;1907311;75;21576;-78
2021/08/24 12:37:00;;;;;;;2.02;1.90;;;19.10;99.90;;;;;;1908731;74;21118;-78
2021/08/24 12:39:26;;;;;;;2.27;2.08;;;19.10;99.90;;;;;;1904467;75;21086;-77